Time;durP1;ratioP1;P1;durP2;ratioP2;P2;SDS_P1;SDS_P2;PMS_P1;PMS_P2;Temp;Humidity;BMP_temperature;BMP_pressure;BME280_temperature;BME280_humidity;BME280_pressure;Samples;Min_cycle;Max_cycle;Signal;HPM_P1;HPM_P2
2024/04/03 00:04:07;;;;;;;;;1.75;1.75;;;;;;;;6491574;31;9031;-55
2024/04/03 00:10:08;;;;;;;;;2.00;2.00;;;;;;;;6490179;39;8870;-56
2024/04/03 00:16:09;;;;;;;;;1.75;1.75;;;;;;;;6490805;39;8894;-56
2024/04/03 00:22:10;;;;;;;;;2.00;2.00;;;;;;;;6491311;39;8885;-55
2024/04/03 00:28:11;;;;;;;;;1.50;1.00;;;;;;;;6490413;39;9043;-55
2024/04/03 00:34:12;;;;;;;;;6.00;5.00;;;;;;;;6490426;39;8882;-56
2024/04/03 00:40:14;;;;;;;;;6.25;6.25;;;;;;;;6489657;39;9587;-54
2024/04/03 00:46:17;;;;;;;;;4.50;4.50;;;;;;;;6489190;39;8893;-54
2024/04/03 00:52:18;;;;;;;;;3.00;3.00;;;;;;;;6489967;47;9104;-56
2024/04/03 00:58:19;;;;;;;;;6.00;3.50;;;;;;;;6489535;39;9750;-51
2024/04/03 01:04:20;;;;;;;;;5.75;5.75;;;;;;;;6490963;31;8861;-55
2024/04/03 01:10:21;;;;;;;;;6.50;5.50;;;;;;;;6491741;39;8977;-54
2024/04/03 01:16:23;;;;;;;;;4.50;4.50;;;;;;;;6492302;31;8848;-56
2024/04/03 01:22:24;;;;;;;;;4.50;4.50;;;;;;;;6491555;46;9028;-54
2024/04/03 01:28:25;;;;;;;;;4.00;4.00;;;;;;;;6491299;46;8944;-54
2024/04/03 01:34:26;;;;;;;;;6.00;6.00;;;;;;;;6491335;46;9009;-54
2024/04/03 01:40:27;;;;;;;;;7.00;5.00;;;;;;;;6490603;39;8880;-54
2024/04/03 01:46:29;;;;;;;;;3.00;3.00;;;;;;;;6491851;31;8929;-53
2024/04/03 01:52:30;;;;;;;;;6.25;5.00;;;;;;;;6491906;39;8892;-56
2024/04/03 01:58:31;;;;;;;;;6.50;3.75;;;;;;;;6491346;39;8937;-55
2024/04/03 02:04:32;;;;;;;;;4.50;3.00;;;;;;;;6492122;31;9002;-53
2024/04/03 02:10:33;;;;;;;;;5.50;3.75;;;;;;;;6491137;39;8941;-55
2024/04/03 02:16:35;;;;;;;;;6.25;4.00;;;;;;;;6492182;31;8840;-54
2024/04/03 02:22:36;;;;;;;;;3.00;2.00;;;;;;;;6492304;39;8882;-54
2024/04/03 02:28:38;;;;;;;;;2.00;2.00;;;;;;;;6491371;39;9023;-54
2024/04/03 02:34:39;;;;;;;;;3.00;2.00;;;;;;;;6490896;46;8925;-57
2024/04/03 02:40:40;;;;;;;;;4.50;3.00;;;;;;;;6490752;39;8972;-53
2024/04/03 02:46:41;;;;;;;;;2.00;2.00;;;;;;;;6491591;31;8988;-55
2024/04/03 02:52:42;;;;;;;;;2.00;2.00;;;;;;;;6491502;39;8930;-57
2024/04/03 02:58:45;;;;;;;;;3.00;3.00;;;;;;;;6490165;46;8902;-52
2024/04/03 03:04:47;;;;;;;;;3.00;3.00;;;;;;;;6490613;46;9031;-52
2024/04/03 03:10:48;;;;;;;;;2.00;2.00;;;;;;;;6490502;46;8932;-55
2024/04/03 03:16:49;;;;;;;;;5.00;2.00;;;;;;;;6490854;39;10078;-54
2024/04/03 03:22:50;;;;;;;;;5.00;3.00;;;;;;;;6490917;31;8928;-55
2024/04/03 03:28:53;;;;;;;;;4.50;4.50;;;;;;;;6490562;39;9035;-54
2024/04/03 03:34:55;;;;;;;;;5.00;2.75;;;;;;;;6490438;39;9572;-57
2024/04/03 03:40:56;;;;;;;;;3.00;3.00;;;;;;;;6490980;39;8943;-53
2024/04/03 03:46:57;;;;;;;;;4.50;4.50;;;;;;;;6490546;39;8929;-53
2024/04/03 03:52:59;;;;;;;;;5.00;2.50;;;;;;;;6491130;39;8945;-54
2024/04/03 03:59:00;;;;;;;;;5.25;3.00;;;;;;;;6490509;31;9553;-56
2024/04/03 04:05:02;;;;;;;;;5.00;5.00;;;;;;;;6472439;31;9010;-55
2024/04/03 04:11:06;;;;;;;;;5.75;5.75;;;;;;;;6494066;31;8870;-57
2024/04/03 04:17:08;;;;;;;;;3.50;3.50;;;;;;;;6492720;39;8883;-56
2024/04/03 04:23:09;;;;;;;;;6.00;5.75;;;;;;;;6493392;39;8875;-56
2024/04/03 04:29:11;;;;;;;;;6.25;6.00;;;;;;;;6493103;39;8945;-56
2024/04/03 04:35:13;;;;;;;;;5.00;5.00;;;;;;;;6490711;39;8902;-57
2024/04/03 04:41:14;;;;;;;;;5.50;5.50;;;;;;;;6494437;39;8972;-57
2024/04/03 04:47:18;;;;;;;;;7.00;5.00;;;;;;;;6495704;31;8866;-56
2024/04/03 04:53:20;;;;;;;;;7.00;6.00;;;;;;;;6494025;46;8984;-55
2024/04/03 04:59:21;;;;;;;;;5.75;5.75;;;;;;;;6494354;39;8923;-55
2024/04/03 05:05:22;;;;;;;;;7.00;7.00;;;;;;;;6494113;39;9102;-57
2024/04/03 05:11:24;;;;;;;;;8.67;8.67;;;;;;;;6494874;39;8842;-56
2024/04/03 05:17:24;;;;;;;;;11.50;10.00;;;;;;;;6494208;46;8966;-56
2024/04/03 05:23:27;;;;;;;;;10.75;9.50;;;;;;;;6492543;46;8998;-57
2024/04/03 05:29:28;;;;;;;;;7.00;7.00;;;;;;;;6493977;39;9057;-58
2024/04/03 05:35:28;;;;;;;;;12.00;11.00;;;;;;;;6493519;39;8892;-57
2024/04/03 05:41:31;;;;;;;;;16.00;15.25;;;;;;;;6494448;39;9388;-58
2024/04/03 05:47:35;;;;;;;;;20.25;17.50;;;;;;;;6494326;46;9101;-56
2024/04/03 05:53:37;;;;;;;;;20.75;16.75;;;;;;;;6493957;31;8913;-59
2024/04/03 05:59:39;;;;;;;;;26.50;20.50;;;;;;;;6493208;39;8882;-57
2024/04/03 06:05:42;;;;;;;;;16.25;16.25;;;;;;;;6491009;39;8931;-60
2024/04/03 06:11:45;;;;;;;;;18.25;16.25;;;;;;;;6492774;39;8921;-58
2024/04/03 06:17:47;;;;;;;;;21.50;19.50;;;;;;;;6492338;46;9010;-58
2024/04/03 06:23:48;;;;;;;;;24.50;22.75;;;;;;;;6492291;39;8931;-57
2024/04/03 06:29:52;;;;;;;;;24.00;24.00;;;;;;;;6492886;39;8935;-58
2024/04/03 06:35:53;;;;;;;;;21.50;20.50;;;;;;;;6493465;39;8988;-58
2024/04/03 06:41:54;;;;;;;;;19.50;18.50;;;;;;;;6492487;39;8961;-60
2024/04/03 06:47:56;;;;;;;;;17.00;16.75;;;;;;;;6495418;31;9077;-60
2024/04/03 06:54:00;;;;;;;;;14.75;14.00;;;;;;;;6493285;31;9044;-59
2024/04/03 07:00:03;;;;;;;;;19.67;19.00;;;;;;;;6493272;31;8894;-60
2024/04/03 07:06:05;;;;;;;;;18.00;18.00;;;;;;;;6492849;46;9044;-58
2024/04/03 07:12:06;;;;;;;;;22.00;18.33;;;;;;;;6489257;31;9098;-60
2024/04/03 07:18:10;;;;;;;;;14.67;11.33;;;;;;;;6490741;39;8903;-58
2024/04/03 07:24:15;;;;;;;;;18.00;14.33;;;;;;;;6491194;46;9024;-61
2024/04/03 07:30:16;;;;;;;;;14.33;14.33;;;;;;;;6488211;39;9133;-60
2024/04/03 07:36:21;;;;;;;;;8.00;8.00;;;;;;;;6492038;39;8919;-60
2024/04/03 07:42:27;;;;;;;;;12.67;12.67;;;;;;;;6491148;31;8947;-60
2024/04/03 07:48:30;;;;;;;;;13.33;13.33;;;;;;;;6492493;39;8917;-60
2024/04/03 07:54:33;;;;;;;;;15.00;15.00;;;;;;;;6490179;31;9033;-59
2024/04/03 08:00:35;;;;;;;;;19.00;14.00;;;;;;;;6491201;46;8985;-60
2024/04/03 08:06:40;;;;;;;;;15.00;14.00;;;;;;;;6492278;39;8944;-60
2024/04/03 08:12:43;;;;;;;;;18.00;15.33;;;;;;;;6508052;36;8935;-61
2024/04/03 08:18:51;;;;;;;;;23.00;21.33;;;;;;;;6491601;46;8994;-61
2024/04/03 08:24:53;;;;;;;;;15.67;15.67;;;;;;;;6491643;39;8972;-61
2024/04/03 08:30:56;;;;;;;;;12.00;12.00;;;;;;;;6491386;47;8983;-60
2024/04/03 08:36:59;;;;;;;;;20.67;14.00;;;;;;;;6492267;31;9027;-61
2024/04/03 08:43:02;;;;;;;;;12.33;10.00;;;;;;;;6480794;47;8958;-60
2024/04/03 08:49:08;;;;;;;;;12.33;8.67;;;;;;;;6491313;39;8988;-62
2024/04/03 08:55:16;;;;;;;;;33.33;28.00;;;;;;;;6489242;39;8973;-61
2024/04/03 09:01:18;;;;;;;;;7.67;7.67;;;;;;;;6489928;47;8956;-62
2024/04/03 09:07:21;;;;;;;;;12.67;11.00;;;;;;;;6475101;39;8923;-61
2024/04/03 09:13:23;;;;;;;;;8.33;8.33;;;;;;;;6487338;47;8931;-61
2024/04/03 09:19:24;;;;;;;;;14.00;12.33;;;;;;;;6486507;47;8934;-59
2024/04/03 09:25:30;;;;;;;;;13.00;12.00;;;;;;;;6488004;31;9118;-60
2024/04/03 09:31:34;;;;;;;;;25.67;24.00;;;;;;;;6485725;31;9028;-61
2024/04/03 09:37:41;;;;;;;;;10.67;10.67;;;;;;;;6486095;46;8921;-62
2024/04/03 09:43:45;;;;;;;;;5.67;5.00;;;;;;;;6484694;46;8957;-62
2024/04/03 09:49:53;;;;;;;;;7.67;7.67;;;;;;;;6482689;39;9041;-61
2024/04/03 09:55:58;;;;;;;;;9.33;8.00;;;;;;;;6483987;39;8943;-63
2024/04/03 10:02:05;;;;;;;;;31.33;27.33;;;;;;;;6484026;39;8969;-64
2024/04/03 10:08:16;;;;;;;;;8.00;6.00;;;;;;;;6485024;31;8951;-65
2024/04/03 10:14:32;;;;;;;;;6.00;5.80;;;;;;;;6426705;36;9999546;-62
2024/04/03 10:20:46;;;;;;;;;19.33;19.33;;;;;;;;6482971;39;9083;-64
2024/04/03 10:26:52;;;;;;;;;1.25;1.25;;;;;;;;6484155;39;8986;-62
2024/04/03 10:32:54;;;;;;;;;3.75;3.75;;;;;;;;6484902;39;8937;-64
2024/04/03 10:38:58;;;;;;;;;27.67;25.00;;;;;;;;6482818;46;9038;-62
2024/04/03 10:45:01;;;;;;;;;48.00;37.67;;;;;;;;6484865;46;8996;-62
2024/04/03 10:51:06;;;;;;;;;4.75;4.75;;;;;;;;6484644;39;8992;-63
2024/04/03 10:57:11;;;;;;;;;2.25;1.50;;;;;;;;6484977;39;9749;-63
2024/04/03 11:03:15;;;;;;;;;1.00;1.00;;;;;;;;6483286;46;8976;-62
2024/04/03 11:09:18;;;;;;;;;60.67;49.33;;;;;;;;6476931;39;8993;-63
2024/04/03 11:15:23;;;;;;;;;8.00;8.00;;;;;;;;6490494;39;8960;-62
2024/04/03 11:21:26;;;;;;;;;4.00;4.00;;;;;;;;6489972;46;9055;-62
2024/04/03 11:27:32;;;;;;;;;3.75;2.00;;;;;;;;6491477;31;8934;-62
2024/04/03 11:33:36;;;;;;;;;99.25;90.50;;;;;;;;6490616;39;8963;-62
2024/04/03 11:39:38;;;;;;;;;4.25;3.00;;;;;;;;6487706;46;8952;-62
2024/04/03 11:45:40;;;;;;;;;5.00;5.00;;;;;;;;6489759;39;9036;-63
2024/04/03 11:51:46;;;;;;;;;26.00;25.33;;;;;;;;6489078;31;8948;-63
2024/04/03 11:57:49;;;;;;;;;5.25;2.50;;;;;;;;6488898;46;8985;-65
2024/04/03 12:03:57;;;;;;;;;10.75;7.25;;;;;;;;6488768;39;8992;-63
2024/04/03 12:09:59;;;;;;;;;5.25;3.50;;;;;;;;6489125;46;9077;-62
2024/04/03 12:16:01;;;;;;;;;8.25;7.25;;;;;;;;6490268;39;8923;-63
2024/04/03 12:22:03;;;;;;;;;2.75;2.75;;;;;;;;6490716;31;9044;-62
2024/04/03 12:28:07;;;;;;;;;2.25;2.25;;;;;;;;6490472;31;9059;-61
2024/04/03 12:34:10;;;;;;;;;4.00;4.00;;;;;;;;6489337;47;9046;-64
2024/04/03 12:40:12;;;;;;;;;4.75;4.75;;;;;;;;6489178;31;9064;-63
2024/04/03 12:46:15;;;;;;;;;15.67;15.33;;;;;;;;6489275;31;9117;-62
2024/04/03 12:52:18;;;;;;;;;10.50;9.75;;;;;;;;6489873;31;8923;-63
2024/04/03 12:58:22;;;;;;;;;2.50;2.25;;;;;;;;6488952;47;8942;-63
2024/04/03 13:04:23;;;;;;;;;40.00;35.67;;;;;;;;6488716;39;8992;-63
2024/04/03 13:10:28;;;;;;;;;3.00;3.00;;;;;;;;6488905;46;8962;-62
2024/04/03 13:16:29;;;;;;;;;4.75;3.50;;;;;;;;6490311;31;8911;-62
2024/04/03 13:22:33;;;;;;;;;4.00;4.00;;;;;;;;6491545;31;9057;-63
2024/04/03 13:28:36;;;;;;;;;2.50;2.00;;;;;;;;6492763;31;8961;-63
2024/04/03 13:34:36;;;;;;;;;22.25;21.00;;;;;;;;6490982;39;8925;-60
2024/04/03 13:40:37;;;;;;;;;1.75;1.75;;;;;;;;6491277;46;8923;-61
2024/04/03 13:46:39;;;;;;;;;1.50;1.50;;;;;;;;6492192;31;9805;-63
2024/04/03 13:52:40;;;;;;;;;6.00;4.50;;;;;;;;6491429;39;9045;-63
2024/04/03 13:58:43;;;;;;;;;11.00;11.00;;;;;;;;6491696;39;8979;-61
2024/04/03 14:04:44;;;;;;;;;2.50;2.00;;;;;;;;6491483;46;9086;-60
2024/04/03 14:10:46;;;;;;;;;1.00;1.00;;;;;;;;6491341;46;8948;-62
2024/04/03 14:16:48;;;;;;;;;1.00;1.00;;;;;;;;6491124;39;8941;-61
2024/04/03 14:22:49;;;;;;;;;1.00;1.00;;;;;;;;6491607;31;8933;-62
2024/04/03 14:28:52;;;;;;;;;5.50;5.50;;;;;;;;6491657;39;8978;-62
2024/04/03 14:34:53;;;;;;;;;1.25;1.25;;;;;;;;6490922;39;9653;-62
2024/04/03 14:40:55;;;;;;;;;0.50;0.50;;;;;;;;6491128;31;8966;-61
2024/04/03 14:46:59;;;;;;;;;0.50;0.50;;;;;;;;6490827;46;9091;-62
2024/04/03 14:53:02;;;;;;;;;1.00;1.00;;;;;;;;6491995;39;8957;-62
2024/04/03 14:59:06;;;;;;;;;2.75;2.75;;;;;;;;6491747;46;9072;-63
2024/04/03 15:05:09;;;;;;;;;5.00;4.50;;;;;;;;6491125;39;9034;-62
2024/04/03 15:11:11;;;;;;;;;1.00;1.00;;;;;;;;6491288;39;8948;-62
2024/04/03 15:17:26;;;;;;;;;4.67;4.00;;;;;;;;6492039;31;8969;-63
2024/04/03 15:23:29;;;;;;;;;12.33;12.33;;;;;;;;6490965;39;9568;-62
2024/04/03 15:29:30;;;;;;;;;2.00;2.00;;;;;;;;6491680;39;9026;-61
2024/04/03 15:35:34;;;;;;;;;2.50;2.50;;;;;;;;6491228;31;9040;-61
2024/04/03 15:41:36;;;;;;;;;3.67;2.00;;;;;;;;6490687;46;8928;-62
2024/04/03 15:47:38;;;;;;;;;2.50;2.50;;;;;;;;6491121;39;9638;-62
2024/04/03 15:53:41;;;;;;;;;2.33;1.67;;;;;;;;6489695;46;8931;-62
2024/04/03 15:59:43;;;;;;;;;3.00;3.00;;;;;;;;6489705;31;9037;-62
2024/04/03 16:05:45;;;;;;;;;5.00;3.33;;;;;;;;6536038;36;9098;-61
2024/04/03 16:11:47;;;;;;;;;2.00;2.00;;;;;;;;6489362;39;8928;-62
2024/04/03 16:17:49;;;;;;;;;2.00;1.67;;;;;;;;6491009;31;8851;-62
2024/04/03 16:23:50;;;;;;;;;2.00;1.00;;;;;;;;6490108;47;8864;-62
2024/04/03 16:29:51;;;;;;;;;2.00;2.00;;;;;;;;6489901;39;8974;-61
2024/04/03 16:35:56;;;;;;;;;2.33;2.00;;;;;;;;6490313;39;9376;-63
2024/04/03 16:42:02;;;;;;;;;4.00;3.00;;;;;;;;6492262;39;8927;-61
2024/04/03 16:48:05;;;;;;;;;4.00;3.00;;;;;;;;6492793;39;8973;-61
2024/04/03 16:54:08;;;;;;;;;4.67;4.67;;;;;;;;6491427;46;8996;-61
2024/04/03 17:00:11;;;;;;;;;3.00;3.00;;;;;;;;6492032;39;8935;-59
2024/04/03 17:06:12;;;;;;;;;7.00;4.33;;;;;;;;6489234;39;8940;-58
2024/04/03 17:12:13;;;;;;;;;3.67;3.67;;;;;;;;6491818;39;8994;-58
2024/04/03 17:18:15;;;;;;;;;5.00;5.00;;;;;;;;6491758;39;8931;-58
2024/04/03 17:24:18;;;;;;;;;4.00;4.00;;;;;;;;6492923;36;130179;-58
2024/04/03 17:30:21;;;;;;;;;3.67;3.33;;;;;;;;6491337;39;9008;-58
2024/04/03 17:36:23;;;;;;;;;6.33;5.33;;;;;;;;6491248;39;8899;-58
2024/04/03 17:42:25;;;;;;;;;5.33;4.33;;;;;;;;6491133;39;8963;-58
2024/04/03 17:48:28;;;;;;;;;6.00;6.00;;;;;;;;6491546;46;9113;-58
2024/04/03 17:54:29;;;;;;;;;23.67;20.00;;;;;;;;6491805;31;8912;-58
2024/04/03 18:00:32;;;;;;;;;9.33;8.00;;;;;;;;6491348;39;8926;-57
2024/04/03 18:06:33;;;;;;;;;6.00;6.00;;;;;;;;6491299;39;9106;-58
2024/04/03 18:12:37;;;;;;;;;12.33;9.33;;;;;;;;6491920;39;8855;-57
2024/04/03 18:18:41;;;;;;;;;9.00;6.00;;;;;;;;6491326;39;8861;-58
2024/04/03 18:24:42;;;;;;;;;4.00;4.00;;;;;;;;6491317;39;8977;-59
2024/04/03 18:30:55;;;;;;;;;6.00;6.00;;;;;;;;6491232;39;9553;-60
2024/04/03 18:36:57;;;;;;;;;5.00;5.00;;;;;;;;6491394;39;9642;-59
2024/04/03 18:43:01;;;;;;;;;4.00;4.00;;;;;;;;6510229;36;9554;-58
2024/04/03 18:49:02;;;;;;;;;5.33;5.00;;;;;;;;6490916;31;9030;-58
2024/04/03 18:55:03;;;;;;;;;7.00;7.00;;;;;;;;6490517;31;8875;-58
2024/04/03 19:01:08;;;;;;;;;5.33;5.33;;;;;;;;6490570;39;8949;-59
2024/04/03 19:07:09;;;;;;;;;5.33;5.33;;;;;;;;6491110;39;8978;-57
2024/04/03 19:13:10;;;;;;;;;4.00;4.00;;;;;;;;6491716;31;9648;-59
2024/04/03 19:19:12;;;;;;;;;5.00;5.00;;;;;;;;6490959;39;8880;-58
2024/04/03 19:25:13;;;;;;;;;3.67;3.67;;;;;;;;6490846;39;8866;-59
2024/04/03 19:31:15;;;;;;;;;4.33;4.33;;;;;;;;6490495;46;9014;-58
2024/04/03 19:37:16;;;;;;;;;4.33;4.33;;;;;;;;6490475;46;8949;-58
2024/04/03 19:43:19;;;;;;;;;4.00;4.00;;;;;;;;6490544;39;8911;-59
2024/04/03 19:49:20;;;;;;;;;4.00;4.00;;;;;;;;6490073;46;8974;-57
2024/04/03 19:55:21;;;;;;;;;4.67;4.67;;;;;;;;6490973;46;8949;-58
2024/04/03 20:01:23;;;;;;;;;6.00;6.00;;;;;;;;6489047;39;9584;-58
2024/04/03 20:07:24;;;;;;;;;3.00;3.00;;;;;;;;6489903;31;8927;-58
2024/04/03 20:13:32;;;;;;;;;4.00;3.00;;;;;;;;6490200;46;8874;-57
2024/04/03 20:19:33;;;;;;;;;3.00;3.00;;;;;;;;6490753;31;8896;-58
2024/04/03 20:25:35;;;;;;;;;3.00;3.00;;;;;;;;6490936;31;8898;-60
2024/04/03 20:31:36;;;;;;;;;4.00;4.00;;;;;;;;6489676;46;8973;-58
2024/04/03 20:37:37;;;;;;;;;7.00;7.00;;;;;;;;6489813;47;8941;-58
2024/04/03 20:43:38;;;;;;;;;3.33;3.33;;;;;;;;6489878;39;9021;-58
2024/04/03 20:49:39;;;;;;;;;6.00;5.00;;;;;;;;6490273;47;8882;-58
2024/04/03 20:55:41;;;;;;;;;6.33;4.67;;;;;;;;6489428;39;8887;-58
2024/04/03 21:01:42;;;;;;;;;5.00;5.00;;;;;;;;6489475;47;8903;-58
2024/04/03 21:07:55;;;;;;;;;3.00;3.00;;;;;;;;6490031;39;8899;-58
2024/04/03 21:13:56;;;;;;;;;6.33;4.33;;;;;;;;6489643;39;8871;-59
2024/04/03 21:19:59;;;;;;;;;8.00;6.33;;;;;;;;6489721;39;9602;-58
2024/04/03 21:26:04;;;;;;;;;7.00;5.67;;;;;;;;6491694;46;8926;-58
2024/04/03 21:32:06;;;;;;;;;5.00;5.00;;;;;;;;6492663;31;8946;-57
2024/04/03 21:38:08;;;;;;;;;9.00;7.00;;;;;;;;6491305;46;8909;-57
2024/04/03 21:44:09;;;;;;;;;9.67;8.33;;;;;;;;6491628;39;8915;-58
2024/04/03 21:50:10;;;;;;;;;6.67;6.67;;;;;;;;6508683;36;8887;-57
2024/04/03 21:56:12;;;;;;;;;5.00;5.00;;;;;;;;6491859;39;9030;-58
2024/04/03 22:02:15;;;;;;;;;8.00;5.67;;;;;;;;6490878;46;8938;-58
2024/04/03 22:08:16;;;;;;;;;9.00;9.00;;;;;;;;6491214;39;8967;-58
2024/04/03 22:14:18;;;;;;;;;8.00;5.00;;;;;;;;6491692;39;8891;-58
2024/04/03 22:20:19;;;;;;;;;4.67;4.67;;;;;;;;6492200;39;8939;-57
2024/04/03 22:26:20;;;;;;;;;6.00;4.00;;;;;;;;6491038;39;8890;-58
2024/04/03 22:32:22;;;;;;;;;12.00;10.00;;;;;;;;6491189;39;8955;-58
2024/04/03 22:38:24;;;;;;;;;9.00;7.33;;;;;;;;6490840;46;8899;-59
2024/04/03 22:44:25;;;;;;;;;6.33;6.33;;;;;;;;6491521;39;9033;-57
2024/04/03 22:50:27;;;;;;;;;8.00;6.33;;;;;;;;6491253;39;8912;-58
2024/04/03 22:56:29;;;;;;;;;8.67;7.00;;;;;;;;6491412;39;8894;-57
2024/04/03 23:02:30;;;;;;;;;9.33;8.00;;;;;;;;6490899;39;9015;-58
2024/04/03 23:08:37;;;;;;;;;12.00;7.67;;;;;;;;6491016;39;8964;-58
2024/04/03 23:14:38;;;;;;;;;3.67;3.67;;;;;;;;6490885;39;8948;-58
2024/04/03 23:20:39;;;;;;;;;6.33;6.33;;;;;;;;6491445;39;8866;-58
2024/04/03 23:26:43;;;;;;;;;6.33;5.00;;;;;;;;6491063;39;9047;-58
2024/04/03 23:32:44;;;;;;;;;6.33;6.33;;;;;;;;6490273;39;8997;-58
2024/04/03 23:38:45;;;;;;;;;8.00;7.00;;;;;;;;6508217;36;8967;-58
2024/04/03 23:44:47;;;;;;;;;6.33;6.33;;;;;;;;6489049;46;8902;-57
2024/04/03 23:50:55;;;;;;;;;4.00;4.00;;;;;;;;6490346;46;8913;-58
2024/04/03 23:56:56;;;;;;;;;5.67;5.67;;;;;;;;6490702;39;8909;-57
